Time;durP1;ratioP1;P1;durP2;ratioP2;P2;SDS_P1;SDS_P2;PMS_P1;PMS_P2;Temp;Humidity;BMP_temperature;BMP_pressure;BME280_temperature;BME280_humidity;BME280_pressure;Samples;Min_cycle;Max_cycle;Signal;HPM_P1;HPM_P2
2021/05/30 00:01:53;;;;;;;4.90;4.00;;;19.10;57.40;;;;;;6140320;23;20166;-82
2021/05/30 00:04:18;;;;;;;5.70;4.60;;;19.10;57.40;;;;;;6135451;23;20193;-82
2021/05/30 00:06:44;;;;;;;4.53;4.10;;;19.10;57.50;;;;;;6110860;23;20155;-81
2021/05/30 00:09:10;;;;;;;4.50;3.75;;;19.10;57.40;;;;;;6110246;23;20150;-82
2021/05/30 00:11:36;;;;;;;5.75;4.30;;;19.10;57.40;;;;;;6135089;23;20131;-83
2021/05/30 00:14:06;;;;;;;5.60;4.28;;;19.10;57.40;;;;;;6134636;23;20157;-83
2021/05/30 00:16:32;;;;;;;4.50;4.03;;;19.10;57.40;;;;;;6185615;23;20554;-84
2021/05/30 00:19:09;;;;;;;4.95;4.13;;;19.10;57.40;;;;;;6161203;23;20213;-84
2021/05/30 00:21:37;;;;;;;4.85;4.03;;;19.10;57.40;;;;;;6161278;23;20151;-84
2021/05/30 00:24:04;;;;;;;4.97;4.20;;;19.10;57.30;;;;;;6136846;23;20226;-82
2021/05/30 00:26:31;;;;;;;6.13;4.57;;;19.10;57.50;;;;;;6136993;23;20154;-82
2021/05/30 00:28:57;;;;;;;4.60;4.10;;;19.10;57.40;;;;;;6136348;23;20147;-84
2021/05/30 00:31:24;;;;;;;4.75;4.10;;;19.10;57.40;;;;;;6136603;23;20146;-83
2021/05/30 00:33:51;;;;;;;5.78;4.25;;;19.10;57.40;;;;;;6136606;23;20158;-82
2021/05/30 00:36:17;;;;;;;4.50;3.95;;;19.00;57.40;;;;;;6136438;23;20569;-82
2021/05/30 00:38:43;;;;;;;5.28;4.43;;;19.10;57.50;;;;;;6187545;23;20190;-83
2021/05/30 00:41:09;;;;;;;4.68;4.18;;;19.00;57.50;;;;;;6160915;23;20146;-82
2021/05/30 00:43:58;;;;;;;5.57;4.25;;;19.00;57.50;;;;;;6161089;23;20207;-83
2021/05/30 00:46:25;;;;;;;5.25;4.22;;;19.00;57.40;;;;;;6182137;23;20147;-82
2021/05/30 00:48:51;;;;;;;4.75;4.25;;;19.00;57.50;;;;;;6187330;23;20189;-81
2021/05/30 00:51:17;;;;;;;4.90;4.18;;;19.00;57.50;;;;;;6161206;23;20206;-83
2021/05/30 00:53:44;;;;;;;5.70;4.40;;;19.00;57.50;;;;;;6137033;23;20201;-82
2021/05/30 00:56:13;;;;;;;5.25;4.30;;;19.00;57.50;;;;;;6160892;23;20563;-82
2021/05/30 00:58:39;;;;;;;5.03;4.22;;;19.00;57.50;;;;;;6161697;23;20210;-84
2021/05/30 01:01:05;;;;;;;4.82;4.30;;;19.00;57.70;;;;;;6137168;23;20559;-83
2021/05/30 01:03:40;;;;;;;5.28;4.22;;;19.00;57.60;;;;;;6161205;23;20143;-81
2021/05/30 01:06:08;;;;;;;5.88;4.40;;;19.00;57.60;;;;;;6136373;23;20157;-82
2021/05/30 01:08:35;;;;;;;4.47;3.90;;;19.00;57.70;;;;;;6161575;23;20212;-83
2021/05/30 01:11:01;;;;;;;4.40;3.90;;;18.90;57.70;;;;;;6161231;23;20138;-82
2021/05/30 01:13:27;;;;;;;5.22;4.35;;;18.90;57.70;;;;;;6112744;23;20131;-82
2021/05/30 01:15:53;;;;;;;5.50;4.25;;;18.90;57.80;;;;;;6136754;23;20142;-83
2021/05/30 01:18:26;;;;;;;5.00;4.30;;;18.90;57.60;;;;;;6136307;23;20494;-83
2021/05/30 01:20:53;;;;;;;4.72;3.92;;;18.90;57.70;;;;;;6187329;23;20169;-83
2021/05/30 01:23:19;;;;;;;4.90;4.30;;;18.90;57.70;;;;;;6161427;23;20130;-82
2021/05/30 01:25:46;;;;;;;5.55;4.10;;;18.90;57.70;;;;;;6160926;23;20127;-82
2021/05/30 01:28:12;;;;;;;5.10;4.03;;;18.90;57.70;;;;;;6161094;23;20139;-82
2021/05/30 01:30:38;;;;;;;5.45;3.83;;;18.90;57.70;;;;;;6160118;23;20194;-82
2021/05/30 01:33:05;;;;;;;5.35;4.10;;;18.90;57.70;;;;;;6136592;23;20131;-83
2021/05/30 01:35:31;;;;;;;5.90;4.03;;;18.90;57.80;;;;;;6187253;23;20138;-84
2021/05/30 01:37:57;;;;;;;4.65;4.10;;;18.90;57.80;;;;;;6160309;23;20178;-84
2021/05/30 01:40:23;;;;;;;4.68;4.15;;;18.90;57.70;;;;;;6136231;23;20435;-82
2021/05/30 01:42:49;;;;;;;4.82;4.30;;;18.90;57.80;;;;;;6160545;23;20131;-83
2021/05/30 01:45:18;;;;;;;4.85;4.10;;;18.90;57.80;;;;;;6136404;23;20133;-82
2021/05/30 01:47:44;;;;;;;5.53;4.00;;;18.90;57.80;;;;;;6187331;23;20135;-82
2021/05/30 01:50:14;;;;;;;4.75;4.07;;;18.90;57.70;;;;;;6136391;23;20224;-82
2021/05/30 01:52:40;;;;;;;5.00;4.38;;;18.90;57.80;;;;;;6136831;23;20210;-83
2021/05/30 01:55:07;;;;;;;5.30;3.80;;;18.90;57.80;;;;;;6111505;23;20166;-82
2021/05/30 01:57:39;;;;;;;4.97;3.88;;;18.90;57.80;;;;;;6160214;23;20185;-83
2021/05/30 02:00:05;;;;;;;4.60;4.10;;;18.90;57.80;;;;;;6161661;23;20135;-81
2021/05/30 02:02:31;;;;;;;4.72;3.95;;;18.90;57.80;;;;;;6187103;23;20166;-83
2021/05/30 02:04:57;;;;;;;4.63;4.13;;;18.90;57.80;;;;;;6160731;23;20563;-82
2021/05/30 02:07:22;;;;;;;5.53;3.95;;;18.90;57.80;;;;;;6160578;23;20571;-81
2021/05/30 02:09:48;;;;;;;5.13;4.13;;;18.90;57.80;;;;;;6135699;23;20579;-83
2021/05/30 02:12:15;;;;;;;5.03;4.15;;;18.90;57.90;;;;;;6160787;23;20614;-82
2021/05/30 02:14:41;;;;;;;5.18;4.28;;;18.80;57.90;;;;;;6160296;23;20131;-82
2021/05/30 02:17:06;;;;;;;5.38;4.28;;;18.80;57.90;;;;;;6160331;23;20174;-81
2021/05/30 02:19:32;;;;;;;4.47;3.80;;;18.90;57.90;;;;;;6111202;23;20143;-84
2021/05/30 02:21:59;;;;;;;4.85;4.13;;;18.80;57.90;;;;;;6111211;23;20512;-82
2021/05/30 02:24:24;;;;;;;5.30;4.20;;;18.80;57.90;;;;;;6135662;23;20478;-82
2021/05/30 02:26:50;;;;;;;5.03;4.05;;;18.80;58.00;;;;;;6160949;23;20201;-83
2021/05/30 02:29:36;;;;;;;5.32;4.20;;;18.80;58.00;;;;;;6135901;23;20146;-84
2021/05/30 02:32:06;;;;;;;4.85;4.00;;;18.80;58.00;;;;;;6160285;23;20135;-82
2021/05/30 02:34:33;;;;;;;4.88;3.85;;;18.80;58.00;;;;;;6160831;23;20475;-83
2021/05/30 02:36:59;;;;;;;4.78;3.90;;;18.80;58.10;;;;;;6160126;23;20174;-83
2021/05/30 02:39:24;;;;;;;4.50;3.78;;;18.80;58.00;;;;;;6135649;23;20190;-83
2021/05/30 02:41:51;;;;;;;5.30;4.28;;;18.80;58.00;;;;;;6186479;23;20131;-83
2021/05/30 02:44:17;;;;;;;5.82;3.90;;;18.80;58.10;;;;;;6111221;23;20193;-82
2021/05/30 02:46:43;;;;;;;5.13;4.30;;;18.80;58.00;;;;;;6160285;23;20155;-82
2021/05/30 02:49:08;;;;;;;4.85;4.00;;;18.80;58.00;;;;;;6136561;23;20135;-82
2021/05/30 02:51:43;;;;;;;5.10;4.00;;;18.80;58.00;;;;;;6160606;23;20137;-83
2021/05/30 02:54:09;;;;;;;4.40;3.88;;;18.80;58.00;;;;;;6135664;23;20146;-82
2021/05/30 02:56:35;;;;;;;4.70;4.05;;;18.80;58.00;;;;;;6136349;23;20205;-83
2021/05/30 02:59:04;;;;;;;5.10;4.30;;;18.80;58.00;;;;;;6136208;23;20127;-81
2021/05/30 03:01:29;;;;;;;4.72;4.00;;;18.70;58.00;;;;;;6161502;23;20192;-81
2021/05/30 03:03:55;;;;;;;4.65;4.00;;;18.80;58.00;;;;;;6161356;23;20190;-81
2021/05/30 03:06:24;;;;;;;5.22;4.50;;;18.80;57.90;;;;;;6161792;23;20175;-84
2021/05/30 03:08:53;;;;;;;4.63;4.05;;;18.80;58.00;;;;;;6113630;23;20474;-82
2021/05/30 03:11:19;;;;;;;4.55;4.03;;;18.80;57.90;;;;;;6161373;23;20137;-82
2021/05/30 03:13:45;;;;;;;4.55;3.92;;;18.80;58.00;;;;;;6161726;23;20141;-84
2021/05/30 03:16:11;;;;;;;5.38;4.30;;;18.80;57.90;;;;;;6137469;23;20135;-83
2021/05/30 03:18:38;;;;;;;5.90;3.88;;;18.80;57.80;;;;;;6137969;23;20139;-83
2021/05/30 03:21:06;;;;;;;4.75;4.05;;;18.80;57.70;;;;;;6161422;23;20571;-82
2021/05/30 03:23:31;;;;;;;5.55;4.10;;;18.80;57.80;;;;;;6188099;23;20178;-83
2021/05/30 03:25:57;;;;;;;4.35;3.92;;;18.80;57.80;;;;;;6136716;23;20444;-84
2021/05/30 03:28:23;;;;;;;4.70;4.00;;;18.80;57.80;;;;;;6136848;23;20151;-83
2021/05/30 03:30:49;;;;;;;5.32;4.22;;;18.80;57.80;;;;;;6161278;23;20153;-81
2021/05/30 03:33:15;;;;;;;4.72;3.95;;;18.80;57.80;;;;;;6136440;23;20203;-82
2021/05/30 03:35:41;;;;;;;4.57;4.03;;;18.80;57.80;;;;;;6161517;23;20135;-84
2021/05/30 03:38:10;;;;;;;4.20;3.80;;;18.80;57.70;;;;;;6160994;23;20224;-82
2021/05/30 03:40:45;;;;;;;4.80;3.83;;;18.90;57.80;;;;;;6114040;23;20237;-81
2021/05/30 03:43:13;;;;;;;4.40;3.50;;;18.80;57.70;;;;;;6140884;23;20193;-81
2021/05/30 03:45:39;;;;;;;5.22;4.38;;;18.90;57.70;;;;;;6136695;23;20178;-83
2021/05/30 03:48:05;;;;;;;5.00;4.20;;;18.80;57.60;;;;;;6161261;23;20151;-82
2021/05/30 03:50:31;;;;;;;4.38;3.97;;;18.90;57.70;;;;;;6113343;23;20139;-83
2021/05/30 03:52:58;;;;;;;4.40;3.92;;;18.90;57.60;;;;;;6137869;23;20130;-82
2021/05/30 03:55:24;;;;;;;4.38;3.97;;;18.80;57.40;;;;;;6138006;23;20143;-83
2021/05/30 03:57:51;;;;;;;5.32;4.13;;;18.90;58.10;;;;;;6137131;23;20171;-82
2021/05/30 04:00:21;;;;;;;4.20;3.80;;;18.90;57.40;;;;;;6115276;23;20222;-83
2021/05/30 04:02:47;;;;;;;4.47;3.90;;;18.90;57.50;;;;;;6164105;23;20139;-82
2021/05/30 04:05:13;;;;;;;4.95;4.18;;;18.90;57.40;;;;;;6115704;23;20147;-83
2021/05/30 04:07:39;;;;;;;4.63;4.07;;;18.90;57.40;;;;;;6141067;23;20135;-81
2021/05/30 04:10:10;;;;;;;4.85;4.18;;;19.00;58.00;;;;;;6116767;23;20153;-83
2021/05/30 04:12:42;;;;;;;5.15;3.95;;;19.00;57.40;;;;;;6139665;23;20588;-82
2021/05/30 04:15:11;;;;;;;5.22;4.20;;;19.00;57.40;;;;;;6138891;23;20127;-82
2021/05/30 04:17:42;;;;;;;4.88;4.10;;;19.00;57.40;;;;;;6114363;23;20182;-81
2021/05/30 04:20:08;;;;;;;4.93;4.15;;;18.90;57.30;;;;;;6139259;23;20584;-81
2021/05/30 04:22:35;;;;;;;4.30;3.90;;;18.90;57.30;;;;;;6114349;23;20139;-84
2021/05/30 04:25:05;;;;;;;4.72;4.22;;;19.00;57.40;;;;;;6138896;23;20226;-82
2021/05/30 04:27:36;;;;;;;4.22;3.67;;;19.00;57.30;;;;;;6138787;23;20580;-82
2021/05/30 04:30:05;;;;;;;5.50;3.90;;;19.00;57.10;;;;;;6139037;23;20139;-82
2021/05/30 04:32:33;;;;;;;4.88;4.28;;;19.00;57.10;;;;;;6163422;23;20147;-82
2021/05/30 04:35:00;;;;;;;4.25;3.72;;;19.00;57.20;;;;;;6139109;23;20135;-82
2021/05/30 04:37:29;;;;;;;4.40;3.97;;;19.00;57.10;;;;;;6114092;23;20653;-84
2021/05/30 04:39:56;;;;;;;6.38;4.10;;;19.00;57.10;;;;;;6138158;23;20249;-82
2021/05/30 04:42:22;;;;;;;4.72;3.92;;;19.00;57.10;;;;;;6139155;23;20170;-81
2021/05/30 04:44:49;;;;;;;4.50;3.90;;;19.00;57.00;;;;;;6164030;23;20136;-83
2021/05/30 04:47:16;;;;;;;4.60;3.97;;;19.00;57.00;;;;;;6138388;23;20146;-84
2021/05/30 04:49:42;;;;;;;4.80;4.20;;;19.00;57.00;;;;;;6163990;23;20138;-82
2021/05/30 04:52:11;;;;;;;3.95;3.55;;;19.00;57.10;;;;;;6114482;23;20238;-83
2021/05/30 04:54:38;;;;;;;3.97;3.58;;;19.00;57.00;;;;;;6164124;23;20145;-83
2021/05/30 04:57:06;;;;;;;12.35;4.25;;;19.10;56.90;;;;;;6164045;23;20166;-82
2021/05/30 04:59:32;;;;;;;4.78;4.00;;;19.10;56.80;;;;;;6163933;23;20626;-83
2021/05/30 05:01:58;;;;;;;4.75;4.25;;;19.10;56.70;;;;;;6114604;23;20151;-82
2021/05/30 05:04:24;;;;;;;5.35;4.25;;;19.10;56.70;;;;;;6139430;23;20590;-81
2021/05/30 05:06:51;;;;;;;4.80;4.30;;;19.10;56.70;;;;;;6116651;23;20151;-82
2021/05/30 05:09:17;;;;;;;4.63;3.80;;;19.10;56.70;;;;;;6140970;23;20131;-82
2021/05/30 05:11:43;;;;;;;4.38;3.90;;;19.20;56.70;;;;;;6165369;23;20151;-83
2021/05/30 05:14:08;;;;;;;4.22;3.67;;;19.20;56.40;;;;;;6140693;23;20161;-81
2021/05/30 05:16:34;;;;;;;4.80;4.00;;;19.20;56.30;;;;;;6140196;23;20194;-82
2021/05/30 05:19:00;;;;;;;4.63;3.80;;;19.20;56.40;;;;;;6140176;23;20158;-83
2021/05/30 05:21:27;;;;;;;4.22;3.83;;;19.20;56.50;;;;;;6115943;23;20146;-81
2021/05/30 05:23:56;;;;;;;4.70;4.13;;;19.20;56.40;;;;;;6115338;23;20474;-83
2021/05/30 05:26:23;;;;;;;4.97;3.88;;;19.20;56.40;;;;;;6140819;23;20151;-82
2021/05/30 05:28:49;;;;;;;4.47;4.00;;;19.20;56.40;;;;;;6164204;23;20157;-82
2021/05/30 05:31:17;;;;;;;4.40;3.83;;;19.20;56.50;;;;;;6138933;23;20163;-82
2021/05/30 05:33:44;;;;;;;4.65;3.90;;;19.20;56.40;;;;;;6163545;23;20146;-84
2021/05/30 05:36:12;;;;;;;4.90;4.00;;;19.20;56.50;;;;;;6139218;23;20143;-84
2021/05/30 05:38:38;;;;;;;4.75;3.72;;;19.20;56.40;;;;;;6163305;23;20190;-84
2021/05/30 05:41:04;;;;;;;4.32;3.80;;;19.20;56.50;;;;;;6164165;23;20151;-83
2021/05/30 05:43:29;;;;;;;4.97;3.67;;;19.20;56.40;;;;;;6163679;23;20155;-83
2021/05/30 05:45:55;;;;;;;4.43;3.92;;;19.20;56.30;;;;;;6189590;23;20136;-83
2021/05/30 05:48:23;;;;;;;4.55;4.10;;;19.20;56.30;;;;;;6139373;23;20463;-81
2021/05/30 05:50:48;;;;;;;5.10;4.30;;;19.30;56.20;;;;;;6114079;23;20154;-84
2021/05/30 05:53:14;;;;;;;4.25;3.83;;;19.30;56.20;;;;;;6139043;23;20135;-83
2021/05/30 05:55:49;;;;;;;4.70;4.20;;;19.30;56.00;;;;;;6189973;23;20458;-83
2021/05/30 05:58:18;;;;;;;4.70;3.78;;;19.40;55.90;;;;;;6163693;23;20166;-84
2021/05/30 06:00:45;;;;;;;4.25;3.85;;;19.40;55.80;;;;;;6139443;23;20143;-82
2021/05/30 06:03:12;;;;;;;4.90;4.00;;;19.40;55.80;;;;;;6163291;23;20209;-82
2021/05/30 06:05:38;;;;;;;4.28;3.88;;;19.40;55.80;;;;;;6162951;23;20135;-82
2021/05/30 06:08:04;;;;;;;4.30;3.90;;;19.40;56.00;;;;;;6162474;23;20153;-84
2021/05/30 06:10:31;;;;;;;4.45;3.78;;;19.40;55.80;;;;;;6138018;23;20221;-83
2021/05/30 06:13:00;;;;;;;4.72;3.95;;;19.40;55.80;;;;;;6137752;23;20138;-82
2021/05/30 06:15:29;;;;;;;4.03;3.60;;;19.50;55.70;;;;;;6138029;23;20174;-84
2021/05/30 06:17:58;;;;;;;4.70;3.85;;;19.40;55.80;;;;;;6162396;23;20610;-83
2021/05/30 06:20:25;;;;;;;4.60;3.53;;;19.40;55.90;;;;;;6137971;23;20185;-81
2021/05/30 06:22:53;;;;;;;5.00;4.10;;;19.40;55.80;;;;;;6162131;23;20143;-82
2021/05/30 06:25:20;;;;;;;4.45;3.85;;;19.50;55.50;;;;;;6162490;23;20141;-82
2021/05/30 06:27:46;;;;;;;4.70;4.20;;;19.50;55.50;;;;;;6138920;23;20131;-82
2021/05/30 06:30:12;;;;;;;4.78;3.90;;;19.50;55.60;;;;;;6162879;23;20589;-82
2021/05/30 06:32:38;;;;;;;4.45;3.80;;;19.50;55.60;;;;;;6114329;23;20190;-83
2021/05/30 06:35:06;;;;;;;4.45;3.97;;;19.50;55.50;;;;;;6138076;23;20155;-84
2021/05/30 06:37:33;;;;;;;4.32;3.88;;;19.50;55.40;;;;;;6161340;23;20192;-83
2021/05/30 06:39:59;;;;;;;4.45;3.85;;;19.50;55.40;;;;;;6162501;23;20190;-82
2021/05/30 06:42:25;;;;;;;4.63;3.70;;;19.50;55.30;;;;;;6163414;23;20131;-83
2021/05/30 06:44:51;;;;;;;4.53;4.00;;;19.50;55.40;;;;;;6163563;23;20142;-81
2021/05/30 06:47:17;;;;;;;5.30;4.00;;;19.50;55.50;;;;;;6162870;23;20135;-84
2021/05/30 06:49:44;;;;;;;3.92;3.50;;;19.50;55.60;;;;;;6162358;23;20138;-82
2021/05/30 06:52:09;;;;;;;4.40;3.97;;;19.50;55.50;;;;;;6188657;23;20178;-82
2021/05/30 06:54:44;;;;;;;4.78;4.18;;;19.50;55.50;;;;;;6138640;23;20168;-81
2021/05/30 06:57:19;;;;;;;4.47;3.90;;;19.50;55.40;;;;;;6140409;23;20178;-83
2021/05/30 06:59:54;;;;;;;4.30;3.60;;;19.50;55.50;;;;;;6164919;23;20131;-83
2021/05/30 07:02:21;;;;;;;4.90;3.90;;;19.50;55.40;;;;;;6163886;23;20214;-83
2021/05/30 07:04:48;;;;;;;5.15;4.00;;;19.50;55.30;;;;;;6163669;23;20185;-83
2021/05/30 07:07:16;;;;;;;5.47;3.92;;;19.60;55.20;;;;;;6162522;23;20131;-80
2021/05/30 07:09:41;;;;;;;5.07;3.88;;;19.60;55.20;;;;;;6188569;23;20138;-85
2021/05/30 07:12:10;;;;;;;4.45;4.05;;;19.50;55.40;;;;;;6161820;23;20165;-84
2021/05/30 07:14:37;;;;;;;6.05;3.88;;;19.60;55.20;;;;;;6161795;23;20131;-82
2021/05/30 07:17:05;;;;;;;10.02;3.90;;;19.60;55.30;;;;;;6113241;23;20171;-83
2021/05/30 07:19:31;;;;;;;6.32;3.78;;;19.70;55.10;;;;;;6115206;23;20150;-83
2021/05/30 07:21:57;;;;;;;5.10;3.80;;;19.60;55.20;;;;;;6141717;23;20142;-85
2021/05/30 07:24:23;;;;;;;6.20;3.80;;;19.60;54.90;;;;;;6140943;23;20143;-85
2021/05/30 07:26:54;;;;;;;5.03;3.92;;;19.70;54.80;;;;;;6140723;23;20139;-84
2021/05/30 07:29:21;;;;;;;6.28;3.78;;;19.60;54.90;;;;;;6163650;23;20131;-83
2021/05/30 07:31:48;;;;;;;6.47;3.97;;;19.60;55.10;;;;;;6164189;23;20146;-82
2021/05/30 07:34:16;;;;;;;6.30;4.20;;;19.60;54.90;;;;;;6115570;23;20139;-83
2021/05/30 07:36:41;;;;;;;5.85;4.30;;;19.70;55.10;;;;;;6189839;23;20171;-84
2021/05/30 07:39:07;;;;;;;7.47;3.92;;;19.60;54.80;;;;;;6165711;23;20578;-83
2021/05/30 07:41:34;;;;;;;4.70;3.60;;;19.70;54.90;;;;;;6141754;23;20170;-84
2021/05/30 07:44:00;;;;;;;5.93;3.63;;;19.70;54.90;;;;;;6167538;23;20132;-83
2021/05/30 07:46:28;;;;;;;6.93;4.18;;;19.70;54.90;;;;;;6146160;23;20131;-81
2021/05/30 07:49:03;;;;;;;5.35;3.72;;;19.80;54.70;;;;;;6143156;23;20193;-82
2021/05/30 07:51:30;;;;;;;5.20;3.90;;;19.80;54.70;;;;;;6172460;23;20555;-82
2021/05/30 07:53:59;;;;;;;5.65;4.03;;;19.70;54.80;;;;;;6143745;23;20161;-83
2021/05/30 07:56:26;;;;;;;7.03;3.95;;;19.80;54.80;;;;;;6147421;23;20139;-82
2021/05/30 07:58:55;;;;;;;7.32;4.28;;;19.80;54.80;;;;;;6170427;23;20147;-82
2021/05/30 08:01:21;;;;;;;10.68;4.03;;;19.70;55.20;;;;;;6145466;23;20173;-82
2021/05/30 08:03:48;;;;;;;8.52;3.78;;;19.60;55.10;;;;;;6142624;23;20131;-83
2021/05/30 08:06:15;;;;;;;5.75;3.97;;;19.60;55.50;;;;;;6143347;23;20143;-84
2021/05/30 08:08:42;;;;;;;4.88;3.85;;;19.60;55.50;;;;;;6141717;23;20478;-81
2021/05/30 08:11:07;;;;;;;8.43;4.20;;;19.60;55.50;;;;;;6141724;23;20173;-82
2021/05/30 08:13:35;;;;;;;5.18;3.90;;;19.60;55.50;;;;;;6141149;23;20506;-83
2021/05/30 08:16:01;;;;;;;7.40;4.13;;;19.70;55.70;;;;;;6164699;23;20127;-83
2021/05/30 08:18:26;;;;;;;8.02;3.80;;;19.70;55.30;;;;;;6116566;23;20205;-82
2021/05/30 08:20:52;;;;;;;10.40;4.30;;;19.80;55.20;;;;;;6115665;23;20147;-83
2021/05/30 08:23:19;;;;;;;6.43;3.97;;;19.70;55.30;;;;;;6142264;23;20139;-83
2021/05/30 08:25:45;;;;;;;8.80;3.95;;;19.80;55.20;;;;;;6141957;23;20136;-82
2021/05/30 08:28:14;;;;;;;6.18;3.85;;;19.70;55.50;;;;;;6170274;23;20162;-82
2021/05/30 08:30:40;;;;;;;4.38;3.70;;;19.70;55.30;;;;;;6119944;23;20138;-83
2021/05/30 08:33:14;;;;;;;5.15;3.80;;;19.60;55.60;;;;;;6119850;23;20162;-83
2021/05/30 08:35:41;;;;;;;7.57;3.85;;;19.60;55.80;;;;;;6144650;23;20134;-83
2021/05/30 08:38:07;;;;;;;8.20;3.92;;;19.60;55.50;;;;;;6137445;23;20201;-83
2021/05/30 08:40:32;;;;;;;9.65;4.50;;;19.70;55.40;;;;;;6140520;23;20262;-83
2021/05/30 08:42:59;;;;;;;8.80;4.10;;;19.70;55.50;;;;;;6119951;23;20278;-82
2021/05/30 08:45:25;;;;;;;7.43;3.75;;;19.60;55.50;;;;;;6142297;23;20128;-83
2021/05/30 08:47:53;;;;;;;8.02;3.80;;;19.60;55.40;;;;;;6116860;23;20162;-84
2021/05/30 08:50:21;;;;;;;6.10;4.07;;;19.70;55.60;;;;;;6166954;23;20132;-83
2021/05/30 08:52:48;;;;;;;7.68;4.10;;;19.60;55.50;;;;;;6139825;23;20128;-82
2021/05/30 08:55:15;;;;;;;7.28;4.18;;;19.60;55.80;;;;;;6161208;23;20132;-84
2021/05/30 08:57:49;;;;;;;7.60;3.90;;;19.60;55.60;;;;;;6163373;23;20171;-83
2021/05/30 09:00:27;;;;;;;10.32;4.10;;;19.60;55.40;;;;;;6115728;23;20158;-83
2021/05/30 09:03:12;;;;;;;8.60;4.03;;;19.60;55.20;;;;;;6115858;23;20530;-82
2021/05/30 09:05:47;;;;;;;10.43;4.30;;;19.60;55.60;;;;;;6116309;23;20155;-83
2021/05/30 09:08:33;;;;;;;7.20;4.25;;;19.50;55.80;;;;;;6115741;23;20161;-83
2021/05/30 09:11:01;;;;;;;8.75;4.15;;;19.60;55.50;;;;;;6127025;23;20135;-84
2021/05/30 09:13:28;;;;;;;10.60;4.18;;;19.50;55.80;;;;;;6136343;23;20655;-84
2021/05/30 09:18:33;;;;;;;6.38;3.95;;;19.40;56.40;;;;;;6132962;23;20226;-84
2021/05/30 09:21:01;;;;;;;12.52;4.13;;;19.40;56.30;;;;;;6108940;23;20202;-83
2021/05/30 09:23:44;;;;;;;8.00;4.15;;;19.50;56.00;;;;;;6108475;23;20147;-84
2021/05/30 09:26:17;;;;;;;8.82;3.90;;;19.50;56.10;;;;;;6132279;23;20132;-83
2021/05/30 09:29:12;;;;;;;8.45;4.20;;;19.60;56.00;;;;;;6107919;23;20159;-83
2021/05/30 09:31:58;;;;;;;11.18;4.32;;;19.60;55.80;;;;;;6132081;23;20531;-83
2021/05/30 09:34:29;;;;;;;10.55;4.85;;;19.60;55.80;;;;;;6108348;23;20151;-83
2021/05/30 09:36:56;;;;;;;9.05;4.53;;;19.60;55.60;;;;;;6131370;23;20226;-83
2021/05/30 09:39:44;;;;;;;8.15;4.28;;;19.60;55.60;;;;;;6127203;23;20202;-85
2021/05/30 09:42:48;;;;;;;11.57;4.43;;;19.60;55.70;;;;;;6162046;23;20139;-83
2021/05/30 09:45:32;;;;;;;7.88;3.80;;;19.60;55.80;;;;;;6161112;23;20225;-84
2021/05/30 09:47:59;;;;;;;5.63;3.90;;;19.60;55.70;;;;;;6161693;23;20492;-84
2021/05/30 09:50:26;;;;;;;10.32;4.05;;;19.60;55.70;;;;;;6162177;23;20177;-83
2021/05/30 09:52:53;;;;;;;6.28;4.13;;;19.60;55.90;;;;;;6161282;23;20135;-83
2021/05/30 09:55:22;;;;;;;8.00;4.35;;;19.50;56.00;;;;;;6161690;23;20273;-85
2021/05/30 09:58:19;;;;;;;8.88;4.07;;;19.50;55.90;;;;;;6160688;23;20610;-83
2021/05/30 10:00:50;;;;;;;7.78;4.10;;;19.60;56.00;;;;;;6187366;23;20191;-83
2021/05/30 10:03:18;;;;;;;6.65;3.95;;;19.50;56.00;;;;;;6188279;23;20134;-83
2021/05/30 10:05:44;;;;;;;6.95;4.40;;;19.50;55.90;;;;;;6161194;23;20210;-83
2021/05/30 10:08:11;;;;;;;8.65;4.15;;;19.50;56.10;;;;;;6136236;23;20182;-83
2021/05/30 10:10:38;;;;;;;6.60;4.18;;;19.50;56.20;;;;;;6162106;23;20162;-84
2021/05/30 10:13:05;;;;;;;7.63;4.20;;;19.50;56.20;;;;;;6189287;23;20159;-84
2021/05/30 10:15:31;;;;;;;9.50;4.10;;;19.50;56.20;;;;;;6137435;23;20143;-83
2021/05/30 10:18:13;;;;;;;8.45;4.18;;;19.50;56.40;;;;;;6162513;23;20181;-83
2021/05/30 10:20:39;;;;;;;11.30;4.35;;;19.50;56.40;;;;;;6139382;23;20131;-83
2021/05/30 10:23:08;;;;;;;8.43;4.25;;;19.40;56.40;;;;;;6113917;23;20146;-83
2021/05/30 10:25:35;;;;;;;10.90;4.20;;;19.40;56.60;;;;;;6113694;23;20139;-83
2021/05/30 10:28:17;;;;;;;6.20;3.72;;;19.40;56.70;;;;;;6112350;23;20149;-83
2021/05/30 10:30:45;;;;;;;9.38;4.13;;;19.30;56.60;;;;;;6137964;23;20135;-83
2021/05/30 10:33:17;;;;;;;6.75;4.10;;;19.40;56.60;;;;;;6138309;23;20135;-85
2021/05/30 10:35:46;;;;;;;9.73;4.10;;;19.40;56.60;;;;;;6138338;23;20142;-84
2021/05/30 10:38:12;;;;;;;8.50;3.90;;;19.40;56.60;;;;;;6114612;23;20226;-84
2021/05/30 10:40:40;;;;;;;9.57;3.90;;;19.40;56.60;;;;;;6139585;23;20139;-85
2021/05/30 10:43:15;;;;;;;6.82;4.07;;;19.40;56.60;;;;;;6138283;23;20575;-83
2021/05/30 10:45:59;;;;;;;6.57;4.10;;;19.30;57.10;;;;;;6138866;23;20133;-84
2021/05/30 10:48:25;;;;;;;6.10;3.83;;;19.40;56.60;;;;;;6115107;23;20161;-85
2021/05/30 10:51:22;;;;;;;10.70;4.25;;;19.40;56.70;;;;;;6166198;23;20471;-84
2021/05/30 10:53:52;;;;;;;9.20;3.90;;;19.40;56.60;;;;;;6174705;23;20151;-84
2021/05/30 10:56:22;;;;;;;7.57;4.10;;;19.40;56.70;;;;;;6150693;23;20142;-82
2021/05/30 10:59:25;;;;;;;7.45;4.38;;;19.30;56.70;;;;;;6149222;23;20158;-84
2021/05/30 11:01:55;;;;;;;6.05;4.07;;;19.40;56.80;;;;;;6199403;23;20147;-84
2021/05/30 11:04:31;;;;;;;8.63;4.00;;;19.40;56.70;;;;;;6075358;23;20162;-83
2021/05/30 11:07:05;;;;;;;8.07;4.55;;;19.40;56.70;;;;;;6074335;23;20471;-83
2021/05/30 11:09:48;;;;;;;8.30;4.18;;;19.30;56.70;;;;;;6074637;23;20165;-84
2021/05/30 11:12:30;;;;;;;7.20;4.35;;;19.40;56.70;;;;;;6196184;23;20127;-83
2021/05/30 11:15:18;;;;;;;6.70;4.20;;;19.40;56.60;;;;;;6173832;23;20145;-84
2021/05/30 11:17:52;;;;;;;5.07;4.15;;;19.50;56.60;;;;;;6148523;23;20202;-84
2021/05/30 11:20:20;;;;;;;8.48;4.53;;;19.40;56.50;;;;;;6098378;23;20337;-83
2021/05/30 11:22:48;;;;;;;9.18;4.32;;;19.40;56.50;;;;;;6149051;23;20224;-84
2021/05/30 11:25:16;;;;;;;13.25;4.47;;;19.40;56.60;;;;;;6148138;23;20223;-83
2021/05/30 11:28:00;;;;;;;6.53;4.28;;;19.40;56.40;;;;;;6151194;23;20139;-84
2021/05/30 11:30:41;;;;;;;7.05;4.03;;;19.40;56.40;;;;;;6150941;23;20147;-83
2021/05/30 11:33:11;;;;;;;7.45;4.45;;;19.40;56.50;;;;;;6151351;23;20168;-83
2021/05/30 11:35:37;;;;;;;7.85;4.30;;;19.40;56.60;;;;;;6124698;23;20170;-83
2021/05/30 11:38:03;;;;;;;8.75;3.88;;;19.40;56.60;;;;;;6150764;23;20174;-83
2021/05/30 11:40:34;;;;;;;5.25;4.10;;;19.40;56.60;;;;;;6125418;23;20157;-84
2021/05/30 11:43:19;;;;;;;7.00;3.90;;;19.40;56.60;;;;;;6147682;23;20158;-85
2021/05/30 11:45:50;;;;;;;7.45;4.53;;;19.40;56.50;;;;;;6145285;23;20227;-84
2021/05/30 11:48:25;;;;;;;8.20;4.07;;;19.50;56.40;;;;;;6096015;23;20154;-84
2021/05/30 11:50:56;;;;;;;6.13;4.03;;;19.50;56.40;;;;;;6097170;23;20149;-84
2021/05/30 11:53:34;;;;;;;5.93;4.18;;;19.50;56.50;;;;;;6121009;23;20507;-84
2021/05/30 11:56:06;;;;;;;5.55;4.03;;;19.50;56.40;;;;;;6121315;23;20150;-83
2021/05/30 11:58:43;;;;;;;5.85;4.22;;;19.50;56.30;;;;;;6094662;23;20274;-83
2021/05/30 12:01:13;;;;;;;7.10;4.32;;;19.40;56.30;;;;;;6100577;23;20157;-84
2021/05/30 12:03:49;;;;;;;9.02;4.38;;;19.40;56.60;;;;;;6121132;23;20157;-84
2021/05/30 12:06:17;;;;;;;5.60;4.00;;;19.40;56.50;;;;;;6121002;23;20177;-84
2021/05/30 12:09:02;;;;;;;5.38;3.92;;;19.50;56.40;;;;;;6122298;23;20189;-82
2021/05/30 12:11:32;;;;;;;7.20;4.38;;;19.50;56.40;;;;;;6121494;23;20159;-84
2021/05/30 12:14:06;;;;;;;6.05;4.38;;;19.50;56.50;;;;;;6096007;23;20157;-85
2021/05/30 12:16:40;;;;;;;7.32;4.50;;;19.50;56.40;;;;;;6120243;23;20550;-83
2021/05/30 12:19:10;;;;;;;9.45;4.15;;;19.50;56.10;;;;;;6098472;23;20177;-82
2021/05/30 12:21:42;;;;;;;7.75;4.10;;;19.50;56.90;;;;;;6098120;23;20151;-83
2021/05/30 12:24:13;;;;;;;9.27;4.03;;;19.60;56.30;;;;;;6149678;23;20150;-84
2021/05/30 12:26:55;;;;;;;6.60;4.13;;;19.60;56.20;;;;;;6152605;23;20151;-83
2021/05/30 12:29:25;;;;;;;5.97;4.10;;;19.50;56.30;;;;;;6105135;23;20151;-83
2021/05/30 12:32:04;;;;;;;5.22;3.97;;;19.50;56.30;;;;;;6127901;23;20173;-83
2021/05/30 12:34:38;;;;;;;5.20;4.03;;;19.60;56.30;;;;;;6128136;23;20207;-85
2021/05/30 12:37:05;;;;;;;6.80;4.20;;;19.60;56.20;;;;;;6100158;23;20179;-83
2021/05/30 12:39:32;;;;;;;6.30;4.10;;;19.50;56.20;;;;;;6102303;23;20205;-85
2021/05/30 12:42:01;;;;;;;6.43;4.72;;;19.60;55.90;;;;;;6126821;23;20160;-84
2021/05/30 12:44:42;;;;;;;6.30;4.10;;;19.60;56.00;;;;;;6127681;23;20159;-84
2021/05/30 12:47:20;;;;;;;7.30;3.80;;;19.60;55.90;;;;;;6176686;23;20237;-85
2021/05/30 12:49:57;;;;;;;7.38;4.40;;;19.60;56.20;;;;;;6152186;23;20189;-84
2021/05/30 12:52:23;;;;;;;5.97;4.10;;;19.60;56.10;;;;;;6174872;23;20209;-85
2021/05/30 12:55:05;;;;;;;6.15;4.00;;;19.60;56.30;;;;;;6123459;23;20166;-84
2021/05/30 12:57:46;;;;;;;5.95;4.30;;;19.60;56.20;;;;;;6172517;23;20189;-84
2021/05/30 13:00:32;;;;;;;6.32;4.13;;;19.50;56.20;;;;;;6147562;23;20162;-83